sensor_id;sensor_type;location;lat;lon;timestamp;pressure;altitude;pressure_sealevel;temperature;humidity
63006;BME280;53704;52.532;6.426;2023-07-31T00:02:12;100891.25;;;14.93;100.00
63006;BME280;53704;52.532;6.426;2023-07-31T00:04:38;100895.56;;;14.87;100.00
63006;BME280;53704;52.532;6.426;2023-07-31T00:07:03;100886.69;;;14.78;100.00
63006;BME280;53704;52.532;6.426;2023-07-31T00:09:29;100888.44;;;14.86;100.00
63006;BME280;53704;52.532;6.426;2023-07-31T00:11:54;100884.28;;;14.83;100.00
63006;BME280;53704;52.532;6.426;2023-07-31T00:14:20;100880.38;;;14.71;100.00
63006;BME280;53704;52.532;6.426;2023-07-31T00:16:45;100885.34;;;14.89;100.00
63006;BME280;53704;52.532;6.426;2023-07-31T00:19:11;100873.31;;;14.77;100.00
63006;BME280;53704;52.532;6.426;2023-07-31T00:21:36;100875.09;;;14.84;100.00
63006;BME280;53704;52.532;6.426;2023-07-31T00:24:01;100872.34;;;14.63;100.00
63006;BME280;53704;52.532;6.426;2023-07-31T00:26:27;100869.06;;;14.68;100.00
63006;BME280;53704;52.532;6.426;2023-07-31T00:28:52;100864.75;;;14.73;100.00
63006;BME280;53704;52.532;6.426;2023-07-31T00:31:18;100854.16;;;14.78;100.00
63006;BME280;53704;52.532;6.426;2023-07-31T00:33:43;100860.66;;;14.99;100.00
63006;BME280;53704;52.532;6.426;2023-07-31T00:36:08;100854.97;;;14.72;100.00
63006;BME280;53704;52.532;6.426;2023-07-31T00:38:34;100859.00;;;14.83;100.00
63006;BME280;53704;52.532;6.426;2023-07-31T00:40:59;100855.34;;;14.39;100.00
63006;BME280;53704;52.532;6.426;2023-07-31T00:43:24;100841.97;;;14.53;100.00
63006;BME280;53704;52.532;6.426;2023-07-31T00:45:50;100847.63;;;14.58;100.00
63006;BME280;53704;52.532;6.426;2023-07-31T00:48:15;100839.69;;;14.56;100.00
63006;BME280;53704;52.532;6.426;2023-07-31T00:50:41;100830.38;;;14.74;100.00
63006;BME280;53704;52.532;6.426;2023-07-31T00:53:06;100832.88;;;14.75;100.00
63006;BME280;53704;52.532;6.426;2023-07-31T00:55:32;100821.66;;;14.78;100.00
63006;BME280;53704;52.532;6.426;2023-07-31T00:57:58;100820.88;;;14.84;100.00
63006;BME280;53704;52.532;6.426;2023-07-31T01:00:23;100816.34;;;14.70;100.00
63006;BME280;53704;52.532;6.426;2023-07-31T01:02:50;100821.66;;;14.78;100.00
63006;BME280;53704;52.532;6.426;2023-07-31T01:05:16;100813.25;;;14.73;100.00
63006;BME280;53704;52.532;6.426;2023-07-31T01:07:55;100812.63;;;14.71;100.00
63006;BME280;53704;52.532;6.426;2023-07-31T01:10:26;100817.41;;;14.69;100.00
63006;BME280;53704;52.532;6.426;2023-07-31T01:12:56;100812.44;;;14.73;100.00
63006;BME280;53704;52.532;6.426;2023-07-31T01:15:23;100809.53;;;14.74;100.00
63006;BME280;53704;52.532;6.426;2023-07-31T01:17:48;100804.50;;;14.71;100.00
63006;BME280;53704;52.532;6.426;2023-07-31T01:20:23;100805.38;;;14.78;100.00
63006;BME280;53704;52.532;6.426;2023-07-31T01:25:55;100810.22;;;14.61;100.00
63006;BME280;53704;52.532;6.426;2023-07-31T01:29:03;100802.03;;;14.76;100.00
63006;BME280;53704;52.532;6.426;2023-07-31T01:31:32;100798.56;;;14.82;100.00
63006;BME280;53704;52.532;6.426;2023-07-31T01:34:01;100792.44;;;14.59;100.00
63006;BME280;53704;52.532;6.426;2023-07-31T01:36:27;100800.22;;;14.62;100.00
63006;BME280;53704;52.532;6.426;2023-07-31T01:38:58;100781.06;;;14.63;100.00
63006;BME280;53704;52.532;6.426;2023-07-31T01:41:24;100797.13;;;14.65;100.00
63006;BME280;53704;52.532;6.426;2023-07-31T01:43:49;100793.09;;;14.76;100.00
63006;BME280;53704;52.532;6.426;2023-07-31T01:46:15;100783.31;;;14.81;100.00
63006;BME280;53704;52.532;6.426;2023-07-31T01:48:40;100783.59;;;14.65;100.00
63006;BME280;53704;52.532;6.426;2023-07-31T01:51:06;100780.28;;;14.70;100.00
63006;BME280;53704;52.532;6.426;2023-07-31T01:53:31;100783.06;;;14.76;100.00
63006;BME280;53704;52.532;6.426;2023-07-31T01:55:57;100776.88;;;14.82;100.00
63006;BME280;53704;52.532;6.426;2023-07-31T01:58:22;100775.88;;;14.83;100.00
63006;BME280;53704;52.532;6.426;2023-07-31T02:00:48;100765.34;;;14.74;100.00
63006;BME280;53704;52.532;6.426;2023-07-31T02:03:13;100774.03;;;14.91;100.00
63006;BME280;53704;52.532;6.426;2023-07-31T02:05:46;100776.75;;;14.91;100.00
63006;BME280;53704;52.532;6.426;2023-07-31T02:08:11;100773.78;;;14.86;100.00
63006;BME280;53704;52.532;6.426;2023-07-31T02:10:37;100770.16;;;14.78;100.00
63006;BME280;53704;52.532;6.426;2023-07-31T02:13:02;100764.34;;;14.81;100.00
63006;BME280;53704;52.532;6.426;2023-07-31T02:15:29;100751.56;;;14.97;100.00
63006;BME280;53704;52.532;6.426;2023-07-31T02:17:55;100755.00;;;14.84;100.00
63006;BME280;53704;52.532;6.426;2023-07-31T02:20:20;100763.00;;;14.92;100.00
63006;BME280;53704;52.532;6.426;2023-07-31T02:22:46;100759.84;;;14.89;100.00
63006;BME280;53704;52.532;6.426;2023-07-31T02:25:14;100755.84;;;14.84;100.00
63006;BME280;53704;52.532;6.426;2023-07-31T02:27:39;100749.31;;;15.00;100.00
63006;BME280;53704;52.532;6.426;2023-07-31T02:30:05;100743.25;;;14.98;100.00
63006;BME280;53704;52.532;6.426;2023-07-31T02:32:31;100740.16;;;15.01;100.00
63006;BME280;53704;52.532;6.426;2023-07-31T02:34:56;100737.00;;;14.98;100.00
63006;BME280;53704;52.532;6.426;2023-07-31T02:37:22;100736.03;;;15.06;100.00
63006;BME280;53704;52.532;6.426;2023-07-31T02:39:47;100748.84;;;15.18;100.00
63006;BME280;53704;52.532;6.426;2023-07-31T02:42:13;100745.78;;;15.00;100.00
63006;BME280;53704;52.532;6.426;2023-07-31T02:44:39;100746.53;;;15.15;100.00
63006;BME280;53704;52.532;6.426;2023-07-31T02:47:04;100736.31;;;15.17;100.00
63006;BME280;53704;52.532;6.426;2023-07-31T02:49:30;100731.94;;;15.16;100.00
63006;BME280;53704;52.532;6.426;2023-07-31T02:51:55;100737.88;;;15.05;100.00
63006;BME280;53704;52.532;6.426;2023-07-31T02:54:20;100724.84;;;15.15;100.00
63006;BME280;53704;52.532;6.426;2023-07-31T02:56:47;100731.84;;;15.31;100.00
63006;BME280;53704;52.532;6.426;2023-07-31T02:59:13;100730.84;;;15.39;100.00
63006;BME280;53704;52.532;6.426;2023-07-31T03:01:38;100717.72;;;15.14;100.00
63006;BME280;53704;52.532;6.426;2023-07-31T03:04:04;100724.66;;;15.17;100.00
63006;BME280;53704;52.532;6.426;2023-07-31T03:06:29;100715.75;;;15.30;100.00
63006;BME280;53704;52.532;6.426;2023-07-31T03:08:55;100718.84;;;15.20;100.00
63006;BME280;53704;52.532;6.426;2023-07-31T03:11:20;100722.59;;;15.26;100.00
63006;BME280;53704;52.532;6.426;2023-07-31T03:13:46;100727.41;;;15.24;100.00
63006;BME280;53704;52.532;6.426;2023-07-31T03:16:11;100721.19;;;15.30;100.00
63006;BME280;53704;52.532;6.426;2023-07-31T03:18:36;100722.38;;;15.20;100.00
63006;BME280;53704;52.532;6.426;2023-07-31T03:21:02;100709.91;;;15.26;100.00
63006;BME280;53704;52.532;6.426;2023-07-31T03:23:27;100712.22;;;15.29;100.00
63006;BME280;53704;52.532;6.426;2023-07-31T03:25:59;100713.09;;;15.08;100.00
63006;BME280;53704;52.532;6.426;2023-07-31T03:28:25;100715.19;;;15.34;100.00
63006;BME280;53704;52.532;6.426;2023-07-31T03:30:51;100722.88;;;15.31;100.00
63006;BME280;53704;52.532;6.426;2023-07-31T03:33:17;100711.75;;;15.26;100.00
63006;BME280;53704;52.532;6.426;2023-07-31T03:35:42;100718.28;;;15.31;100.00
63006;BME280;53704;52.532;6.426;2023-07-31T03:38:08;100713.25;;;15.28;100.00
63006;BME280;53704;52.532;6.426;2023-07-31T03:40:34;100714.94;;;15.29;100.00
63006;BME280;53704;52.532;6.426;2023-07-31T03:42:59;100707.59;;;15.23;100.00
63006;BME280;53704;52.532;6.426;2023-07-31T03:45:24;100702.63;;;15.33;100.00
63006;BME280;53704;52.532;6.426;2023-07-31T03:47:50;100710.25;;;15.16;100.00
63006;BME280;53704;52.532;6.426;2023-07-31T03:50:16;100715.25;;;15.19;100.00
63006;BME280;53704;52.532;6.426;2023-07-31T03:52:43;100713.66;;;15.25;100.00
63006;BME280;53704;52.532;6.426;2023-07-31T03:55:09;100719.31;;;15.30;100.00
63006;BME280;53704;52.532;6.426;2023-07-31T03:57:34;100714.28;;;15.27;100.00
63006;BME280;53704;52.532;6.426;2023-07-31T04:00:00;100709.50;;;15.29;100.00
63006;BME280;53704;52.532;6.426;2023-07-31T04:02:25;100717.19;;;15.26;100.00
63006;BME280;53704;52.532;6.426;2023-07-31T04:04:50;100703.72;;;15.39;100.00
63006;BME280;53704;52.532;6.426;2023-07-31T04:07:16;100718.09;;;15.33;100.00
63006;BME280;53704;52.532;6.426;2023-07-31T04:09:41;100714.75;;;15.31;100.00
63006;BME280;53704;52.532;6.426;2023-07-31T04:12:07;100717.50;;;15.37;100.00
63006;BME280;53704;52.532;6.426;2023-07-31T04:14:32;100715.75;;;15.30;100.00
63006;BME280;53704;52.532;6.426;2023-07-31T04:16:58;100716.41;;;15.32;100.00
63006;BME280;53704;52.532;6.426;2023-07-31T04:19:24;100711.84;;;15.32;100.00
63006;BME280;53704;52.532;6.426;2023-07-31T04:21:49;100712.63;;;15.26;100.00
63006;BME280;53704;52.532;6.426;2023-07-31T04:24:15;100709.94;;;15.33;100.00
63006;BME280;53704;52.532;6.426;2023-07-31T04:26:40;100696.22;;;15.41;100.00
63006;BME280;53704;52.532;6.426;2023-07-31T04:29:06;100694.22;;;15.50;100.00
63006;BME280;53704;52.532;6.426;2023-07-31T04:31:31;100696.22;;;15.41;100.00
63006;BME280;53704;52.532;6.426;2023-07-31T04:33:56;100690.63;;;15.49;100.00
63006;BME280;53704;52.532;6.426;2023-07-31T04:36:22;100687.91;;;15.49;100.00
63006;BME280;53704;52.532;6.426;2023-07-31T04:38:47;100687.50;;;15.46;100.00
63006;BME280;53704;52.532;6.426;2023-07-31T04:41:13;100691.91;;;15.47;100.00
63006;BME280;53704;52.532;6.426;2023-07-31T04:43:38;100679.94;;;15.41;100.00
63006;BME280;53704;52.532;6.426;2023-07-31T04:46:05;100684.19;;;15.50;100.00
63006;BME280;53704;52.532;6.426;2023-07-31T04:48:30;100700.25;;;15.52;100.00
63006;BME280;53704;52.532;6.426;2023-07-31T04:50:56;100697.78;;;15.57;100.00
63006;BME280;53704;52.532;6.426;2023-07-31T04:53:21;100690.72;;;15.63;100.00
63006;BME280;53704;52.532;6.426;2023-07-31T04:55:47;100678.81;;;15.64;100.00
63006;BME280;53704;52.532;6.426;2023-07-31T04:58:12;100681.09;;;15.60;100.00
63006;BME280;53704;52.532;6.426;2023-07-31T05:00:37;100677.59;;;15.66;100.00
63006;BME280;53704;52.532;6.426;2023-07-31T05:03:03;100674.44;;;15.63;100.00
63006;BME280;53704;52.532;6.426;2023-07-31T05:05:28;100674.84;;;15.60;100.00
63006;BME280;53704;52.532;6.426;2023-07-31T05:07:54;100670.84;;;15.55;100.00
63006;BME280;53704;52.532;6.426;2023-07-31T05:10:19;100671.28;;;15.59;100.00
63006;BME280;53704;52.532;6.426;2023-07-31T05:12:45;100669.88;;;15.70;100.00
63006;BME280;53704;52.532;6.426;2023-07-31T05:15:10;100660.78;;;15.49;100.00
63006;BME280;53704;52.532;6.426;2023-07-31T05:17:35;100664.16;;;15.51;100.00
63006;BME280;53704;52.532;6.426;2023-07-31T05:20:01;100668.78;;;15.58;100.00
63006;BME280;53704;52.532;6.426;2023-07-31T05:22:26;100669.81;;;15.56;100.00
63006;BME280;53704;52.532;6.426;2023-07-31T05:24:52;100672.72;;;15.55;100.00
63006;BME280;53704;52.532;6.426;2023-07-31T05:27:19;100667.06;;;15.50;100.00
63006;BME280;53704;52.532;6.426;2023-07-31T05:29:44;100667.06;;;15.50;100.00
63006;BME280;53704;52.532;6.426;2023-07-31T05:32:10;100671.63;;;15.43;100.00
63006;BME280;53704;52.532;6.426;2023-07-31T05:34:36;100665.03;;;15.59;100.00
63006;BME280;53704;52.532;6.426;2023-07-31T05:37:01;100666.06;;;15.58;100.00
63006;BME280;53704;52.532;6.426;2023-07-31T05:39:27;100664.59;;;15.55;100.00
63006;BME280;53704;52.532;6.426;2023-07-31T05:41:52;100659.81;;;15.64;100.00
63006;BME280;53704;52.532;6.426;2023-07-31T05:44:17;100657.75;;;15.66;100.00
63006;BME280;53704;52.532;6.426;2023-07-31T05:46:43;100660.22;;;15.61;100.00
63006;BME280;53704;52.532;6.426;2023-07-31T05:49:08;100657.22;;;15.42;100.00
63006;BME280;53704;52.532;6.426;2023-07-31T05:51:34;100656.47;;;15.62;100.00
63006;BME280;53704;52.532;6.426;2023-07-31T05:53:59;100655.63;;;15.54;100.00
63006;BME280;53704;52.532;6.426;2023-07-31T05:56:25;100655.63;;;15.54;100.00
63006;BME280;53704;52.532;6.426;2023-07-31T05:58:52;100651.94;;;15.69;100.00
63006;BME280;53704;52.532;6.426;2023-07-31T06:01:17;100656.41;;;15.83;100.00
63006;BME280;53704;52.532;6.426;2023-07-31T06:03:43;100654.50;;;15.77;100.00
63006;BME280;53704;52.532;6.426;2023-07-31T06:06:09;100656.66;;;15.95;100.00
63006;BME280;53704;52.532;6.426;2023-07-31T06:08:34;100655.63;;;15.96;100.00
63006;BME280;53704;52.532;6.426;2023-07-31T06:11:00;100649.09;;;15.84;100.00
63006;BME280;53704;52.532;6.426;2023-07-31T06:13:25;100645.25;;;15.71;100.00
63006;BME280;53704;52.532;6.426;2023-07-31T06:15:51;100643.00;;;15.75;100.00
63006;BME280;53704;52.532;6.426;2023-07-31T06:18:16;100645.53;;;15.77;100.00
63006;BME280;53704;52.532;6.426;2023-07-31T06:20:41;100642.06;;;15.54;100.00
63006;BME280;53704;52.532;6.426;2023-07-31T06:23:07;100646.84;;;15.59;100.00
63006;BME280;53704;52.532;6.426;2023-07-31T06:25:33;100648.50;;;15.53;100.00
63006;BME280;53704;52.532;6.426;2023-07-31T06:27:58;100631.66;;;15.65;100.00
63006;BME280;53704;52.532;6.426;2023-07-31T06:30:24;100637.88;;;15.52;100.00
63006;BME280;53704;52.532;6.426;2023-07-31T06:32:49;100634.53;;;15.56;100.00
63006;BME280;53704;52.532;6.426;2023-07-31T06:35:14;100637.09;;;15.71;100.00
63006;BME280;53704;52.532;6.426;2023-07-31T06:37:40;100641.19;;;15.54;100.00
63006;BME280;53704;52.532;6.426;2023-07-31T06:40:08;100631.63;;;15.58;100.00
63006;BME280;53704;52.532;6.426;2023-07-31T06:42:34;100633.13;;;15.67;100.00
63006;BME280;53704;52.532;6.426;2023-07-31T06:45:01;100624.16;;;15.67;100.00
63006;BME280;53704;52.532;6.426;2023-07-31T06:47:26;100613.66;;;15.50;100.00
63006;BME280;53704;52.532;6.426;2023-07-31T06:49:52;100622.69;;;15.64;100.00
63006;BME280;53704;52.532;6.426;2023-07-31T06:52:17;100616.59;;;15.62;100.00
63006;BME280;53704;52.532;6.426;2023-07-31T06:54:43;100614.38;;;15.72;100.00
63006;BME280;53704;52.532;6.426;2023-07-31T06:57:08;100613.66;;;15.50;100.00
63006;BME280;53704;52.532;6.426;2023-07-31T06:59:33;100609.50;;;15.54;100.00
63006;BME280;53704;52.532;6.426;2023-07-31T07:01:59;100608.31;;;15.70;100.00
63006;BME280;53704;52.532;6.426;2023-07-31T07:04:24;100602.03;;;15.70;100.00
63006;BME280;53704;52.532;6.426;2023-07-31T07:06:50;100610.03;;;15.78;100.00
63006;BME280;53704;52.532;6.426;2023-07-31T07:09:15;100602.72;;;15.79;100.00
63006;BME280;53704;52.532;6.426;2023-07-31T07:11:40;100589.53;;;15.76;100.00
63006;BME280;53704;52.532;6.426;2023-07-31T07:14:06;100590.38;;;15.76;100.00
63006;BME280;53704;52.532;6.426;2023-07-31T07:16:31;100572.38;;;15.62;100.00
63006;BME280;53704;52.532;6.426;2023-07-31T07:18:57;100563.22;;;15.76;100.00
63006;BME280;53704;52.532;6.426;2023-07-31T07:21:22;100567.41;;;15.72;100.00
63006;BME280;53704;52.532;6.426;2023-07-31T07:23:48;100583.13;;;15.83;100.00
63006;BME280;53704;52.532;6.426;2023-07-31T07:26:13;100583.75;;;15.85;100.00
63006;BME280;53704;52.532;6.426;2023-07-31T07:28:39;100576.63;;;15.78;100.00
63006;BME280;53704;52.532;6.426;2023-07-31T07:31:04;100575.06;;;15.62;100.00
63006;BME280;53704;52.532;6.426;2023-07-31T07:33:30;100565.09;;;15.69;100.00
63006;BME280;53704;52.532;6.426;2023-07-31T07:36:00;100570.53;;;15.76;100.00
63006;BME280;53704;52.532;6.426;2023-07-31T07:38:28;100566.75;;;15.63;100.00
63006;BME280;53704;52.532;6.426;2023-07-31T07:40:54;100565.75;;;15.78;100.00
63006;BME280;53704;52.532;6.426;2023-07-31T07:43:19;100565.31;;;15.74;100.00
63006;BME280;53704;52.532;6.426;2023-07-31T07:45:44;100569.06;;;15.73;100.00
63006;BME280;53704;52.532;6.426;2023-07-31T07:48:10;100562.41;;;15.76;100.00
63006;BME280;53704;52.532;6.426;2023-07-31T07:50:37;100566.34;;;15.73;100.00
63006;BME280;53704;52.532;6.426;2023-07-31T07:53:03;100561.31;;;15.70;100.00
63006;BME280;53704;52.532;6.426;2023-07-31T07:55:28;100560.34;;;15.84;100.00
63006;BME280;53704;52.532;6.426;2023-07-31T07:57:54;100555.78;;;15.98;100.00
63006;BME280;53704;52.532;6.426;2023-07-31T08:00:19;100555.16;;;16.03;100.00
63006;BME280;53704;52.532;6.426;2023-07-31T08:02:44;100551.22;;;16.12;100.00
63006;BME280;53704;52.532;6.426;2023-07-31T08:05:10;100546.41;;;16.14;100.00
63006;BME280;53704;52.532;6.426;2023-07-31T08:07:35;100548.50;;;16.19;100.00
63006;BME280;53704;52.532;6.426;2023-07-31T08:10:01;100533.69;;;16.28;100.00
63006;BME280;53704;52.532;6.426;2023-07-31T08:12:27;100544.56;;;16.15;100.00
63006;BME280;53704;52.532;6.426;2023-07-31T08:14:52;100547.06;;;16.30;100.00
63006;BME280;53704;52.532;6.426;2023-07-31T08:17:18;100540.78;;;16.36;100.00
63006;BME280;53704;52.532;6.426;2023-07-31T08:19:43;100531.59;;;16.50;100.00
63006;BME280;53704;52.532;6.426;2023-07-31T08:22:09;100539.53;;;16.45;100.00
63006;BME280;53704;52.532;6.426;2023-07-31T08:24:34;100528.66;;;16.45;100.00
63006;BME280;53704;52.532;6.426;2023-07-31T08:27:00;100531.34;;;16.58;100.00
63006;BME280;53704;52.532;6.426;2023-07-31T08:29:25;100526.78;;;16.39;100.00
63006;BME280;53704;52.532;6.426;2023-07-31T08:31:51;100527.00;;;16.44;100.00
63006;BME280;53704;52.532;6.426;2023-07-31T08:34:16;100532.00;;;16.47;100.00
63006;BME280;53704;52.532;6.426;2023-07-31T08:36:41;100529.91;;;16.49;100.00
63006;BME280;53704;52.532;6.426;2023-07-31T08:39:07;100527.81;;;16.64;100.00
63006;BME280;53704;52.532;6.426;2023-07-31T08:41:38;100527.81;;;16.38;100.00
63006;BME280;53704;52.532;6.426;2023-07-31T08:44:04;100519.03;;;16.62;100.00
63006;BME280;53704;52.532;6.426;2023-07-31T08:46:30;100525.91;;;16.78;100.00
63006;BME280;53704;52.532;6.426;2023-07-31T08:48:56;100524.44;;;16.82;100.00
63006;BME280;53704;52.532;6.426;2023-07-31T08:51:23;100523.59;;;16.82;100.00
63006;BME280;53704;52.532;6.426;2023-07-31T08:53:49;100521.31;;;16.86;100.00
63006;BME280;53704;52.532;6.426;2023-07-31T08:56:15;100518.59;;;16.92;100.00
63006;BME280;53704;52.532;6.426;2023-07-31T08:58:42;100519.81;;;16.96;100.00
63006;BME280;53704;52.532;6.426;2023-07-31T09:01:08;100518.59;;;16.86;100.00
63006;BME280;53704;52.532;6.426;2023-07-31T09:03:34;100515.00;;;16.85;100.00
63006;BME280;53704;52.532;6.426;2023-07-31T09:06:02;100514.19;;;16.91;100.00
63006;BME280;53704;52.532;6.426;2023-07-31T09:08:30;100513.97;;;16.93;100.00
63006;BME280;53704;52.532;6.426;2023-07-31T09:10:59;100520.00;;;17.08;100.00
63006;BME280;53704;52.532;6.426;2023-07-31T09:13:25;100501.16;;;17.13;100.00
63006;BME280;53704;52.532;6.426;2023-07-31T09:15:51;100514.34;;;17.10;100.00
63006;BME280;53704;52.532;6.426;2023-07-31T09:18:17;100509.34;;;17.07;100.00
63006;BME280;53704;52.532;6.426;2023-07-31T09:20:45;100509.28;;;17.27;100.00
63006;BME280;53704;52.532;6.426;2023-07-31T09:23:12;100508.44;;;17.20;100.00
63006;BME280;53704;52.532;6.426;2023-07-31T09:25:39;100503.66;;;17.15;100.00
63006;BME280;53704;52.532;6.426;2023-07-31T09:28:09;100503.75;;;17.40;100.00
63006;BME280;53704;52.532;6.426;2023-07-31T09:30:50;100500.09;;;17.14;100.00
63006;BME280;53704;52.532;6.426;2023-07-31T09:33:16;100503.50;;;17.48;100.00
63006;BME280;53704;52.532;6.426;2023-07-31T09:35:42;100499.13;;;17.41;100.00
63006;BME280;53704;52.532;6.426;2023-07-31T09:38:14;100495.41;;;17.35;100.00
63006;BME280;53704;52.532;6.426;2023-07-31T09:40:46;100490.66;;;17.62;100.00
63006;BME280;53704;52.532;6.426;2023-07-31T09:43:19;100497.56;;;17.58;100.00
63006;BME280;53704;52.532;6.426;2023-07-31T09:45:46;100493.16;;;17.64;100.00
63006;BME280;53704;52.532;6.426;2023-07-31T09:48:14;100492.78;;;17.60;100.00
63006;BME280;53704;52.532;6.426;2023-07-31T09:50:46;100489.41;;;17.58;100.00
63006;BME280;53704;52.532;6.426;2023-07-31T09:53:12;100483.78;;;17.53;100.00
63006;BME280;53704;52.532;6.426;2023-07-31T09:55:39;100490.22;;;17.65;100.00
63006;BME280;53704;52.532;6.426;2023-07-31T09:58:07;100469.09;;;17.61;100.00
63006;BME280;53704;52.532;6.426;2023-07-31T10:00:34;100487.81;;;17.44;100.00
63006;BME280;53704;52.532;6.426;2023-07-31T10:03:01;100481.06;;;17.53;100.00
63006;BME280;53704;52.532;6.426;2023-07-31T10:05:34;100481.44;;;17.63;100.00
63006;BME280;53704;52.532;6.426;2023-07-31T10:08:00;100469.47;;;17.64;100.00
63006;BME280;53704;52.532;6.426;2023-07-31T10:10:26;100468.94;;;17.49;100.00
63006;BME280;53704;52.532;6.426;2023-07-31T10:12:53;100474.16;;;17.57;100.00
63006;BME280;53704;52.532;6.426;2023-07-31T10:15:19;100481.50;;;17.82;100.00
63006;BME280;53704;52.532;6.426;2023-07-31T10:17:47;100475.50;;;17.73;100.00
63006;BME280;53704;52.532;6.426;2023-07-31T10:20:14;100476.16;;;17.68;100.00
63006;BME280;53704;52.532;6.426;2023-07-31T10:22:42;100477.00;;;18.01;100.00
63006;BME280;53704;52.532;6.426;2023-07-31T10:25:08;100469.41;;;18.10;100.00
63006;BME280;53704;52.532;6.426;2023-07-31T10:27:35;100473.13;;;18.15;100.00
63006;BME280;53704;52.532;6.426;2023-07-31T10:30:03;100473.22;;;18.27;100.00
63006;BME280;53704;52.532;6.426;2023-07-31T10:32:31;100464.63;;;18.30;100.00
63006;BME280;53704;52.532;6.426;2023-07-31T10:34:57;100466.44;;;18.55;100.00
63006;BME280;53704;52.532;6.426;2023-07-31T10:37:28;100464.13;;;18.58;100.00
63006;BME280;53704;52.532;6.426;2023-07-31T10:40:00;100464.59;;;18.74;100.00
63006;BME280;53704;52.532;6.426;2023-07-31T10:42:31;100456.47;;;18.49;100.00
63006;BME280;53704;52.532;6.426;2023-07-31T10:44:58;100453.81;;;18.60;100.00
63006;BME280;53704;52.532;6.426;2023-07-31T10:47:24;100457.53;;;18.48;100.00
63006;BME280;53704;52.532;6.426;2023-07-31T10:49:50;100460.72;;;18.63;100.00
63006;BME280;53704;52.532;6.426;2023-07-31T10:52:20;100453.75;;;18.67;100.00
63006;BME280;53704;52.532;6.426;2023-07-31T10:55:14;100456.66;;;18.72;100.00
63006;BME280;53704;52.532;6.426;2023-07-31T10:57:44;100441.25;;;18.78;100.00
63006;BME280;53704;52.532;6.426;2023-07-31T11:00:27;100447.44;;;18.92;100.00
63006;BME280;53704;52.532;6.426;2023-07-31T11:03:00;100454.38;;;18.88;100.00
63006;BME280;53704;52.532;6.426;2023-07-31T11:11:09;100445.53;;;19.23;100.00
63006;BME280;53704;52.532;6.426;2023-07-31T11:13:52;100443.72;;;19.35;100.00
63006;BME280;53704;52.532;6.426;2023-07-31T11:16:19;100449.50;;;19.08;100.00
63006;BME280;53704;52.532;6.426;2023-07-31T11:18:46;100453.47;;;19.12;100.00
63006;BME280;53704;52.532;6.426;2023-07-31T11:21:18;100452.34;;;19.32;100.00
63006;BME280;53704;52.532;6.426;2023-07-31T11:24:00;100448.38;;;18.97;100.00
63006;BME280;53704;52.532;6.426;2023-07-31T11:26:27;100445.44;;;18.80;100.00
63006;BME280;53704;52.532;6.426;2023-07-31T11:28:52;100440.66;;;18.76;100.00
63006;BME280;53704;52.532;6.426;2023-07-31T11:31:18;100450.16;;;18.92;100.00
63006;BME280;53704;52.532;6.426;2023-07-31T11:33:44;100443.25;;;18.71;100.00
63006;BME280;53704;52.532;6.426;2023-07-31T11:36:17;100444.88;;;18.72;100.00
63006;BME280;53704;52.532;6.426;2023-07-31T11:38:43;100446.28;;;19.00;100.00
63006;BME280;53704;52.532;6.426;2023-07-31T11:41:09;100452.63;;;18.75;100.00
63006;BME280;53704;52.532;6.426;2023-07-31T11:43:34;100448.16;;;18.62;100.00
63006;BME280;53704;52.532;6.426;2023-07-31T11:46:02;100452.88;;;18.92;100.00
63006;BME280;53704;52.532;6.426;2023-07-31T11:48:37;100455.25;;;18.81;100.00
63006;BME280;53704;52.532;6.426;2023-07-31T11:51:04;100456.41;;;19.11;100.00
63006;BME280;53704;52.532;6.426;2023-07-31T11:53:34;100447.25;;;19.05;100.00
63006;BME280;53704;52.532;6.426;2023-07-31T11:56:01;100438.41;;;18.91;100.00
63006;BME280;53704;52.532;6.426;2023-07-31T11:58:30;100440.53;;;18.89;100.00
63006;BME280;53704;52.532;6.426;2023-07-31T12:00:57;100448.09;;;19.06;100.00
63006;BME280;53704;52.532;6.426;2023-07-31T12:03:23;100453.38;;;19.19;100.00
63006;BME280;53704;52.532;6.426;2023-07-31T12:05:49;100439.03;;;19.24;100.00
63006;BME280;53704;52.532;6.426;2023-07-31T12:08:14;100441.28;;;19.45;100.00
63006;BME280;53704;52.532;6.426;2023-07-31T12:10:41;100446.50;;;19.47;100.00
63006;BME280;53704;52.532;6.426;2023-07-31T12:13:11;100441.31;;;19.27;100.00
63006;BME280;53704;52.532;6.426;2023-07-31T12:15:41;100440.59;;;19.01;100.00
63006;BME280;53704;52.532;6.426;2023-07-31T12:18:19;100437.97;;;19.55;100.00
63006;BME280;53704;52.532;6.426;2023-07-31T12:20:49;100448.94;;;19.37;100.00
63006;BME280;53704;52.532;6.426;2023-07-31T12:23:22;100444.59;;;19.47;100.00
63006;BME280;53704;52.532;6.426;2023-07-31T12:28:54;100456.00;;;19.26;100.00
63006;BME280;53704;52.532;6.426;2023-07-31T12:31:22;100465.72;;;19.22;100.00
63006;BME280;53704;52.532;6.426;2023-07-31T12:33:50;100464.59;;;19.11;100.00
63006;BME280;53704;52.532;6.426;2023-07-31T12:36:18;100455.78;;;19.27;100.00
63006;BME280;53704;52.532;6.426;2023-07-31T12:38:45;100457.28;;;18.93;100.00
63006;BME280;53704;52.532;6.426;2023-07-31T12:41:11;100445.06;;;18.95;100.00
63006;BME280;53704;52.532;6.426;2023-07-31T12:43:39;100446.97;;;18.95;100.00
63006;BME280;53704;52.532;6.426;2023-07-31T12:46:05;100448.03;;;19.24;100.00
63006;BME280;53704;52.532;6.426;2023-07-31T12:48:33;100443.84;;;19.40;100.00
63006;BME280;53704;52.532;6.426;2023-07-31T12:50:58;100445.56;;;19.83;100.00